Latest Weather Observations for Mount Magnet Airport

IDW60801

Issued at 2:02 pm WST Sunday 5 July 2015 (issued every 30 minutes, with the page automatically refreshed every 10 minutes)

About weather observations | Map of weather stations | Latest weather observations for WA | Other Formats
Station Details ID: 007600 Name: MOUNT MAGNET AERO Lat: -28.12 Lon: 117.84 Height: 407.0 m
Data from the previous 72 hours. | See also: Recent months at Mount Magnet Airport
Date/Time
WST
Temp
°C
App
Temp
°C
Dew
Point
Rel
Hum
%
Delta-T
°C
Wind Press
QNH
hPa
Press
MSL
hPa
Rain
since 9 am
mm
Dir
 
Spd
km/h
Gust
km/h
Spd
kts
Gust
kts
05/02:00pm 20.5 18.1 6.8 41 7.1 SW 9 17 5 9 1020.9 1020.7 0.0
05/01:30pm 20.3 17.2 7.3 43 6.8 WSW 13 17 7 9 1021.3 1021.1 0.0
05/01:00pm 19.6 16.4 7.0 44 6.5 S 13 17 7 9 1021.7 1021.4 0.0
05/12:30pm 18.9 17.2 7.7 48 5.8 ESE 6 9 3 5 1022.1 1021.8 0.0
05/12:00pm 19.2 17.5 8.5 50 5.6 NNE 7 15 4 8 1022.6 1022.4 0.0
05/11:30am 18.2 16.7 9.0 55 4.9 NE 7 13 4 7 1023.0 1022.8 0.0
05/11:00am 17.4 15.5 9.1 58 4.4 NE 9 17 5 9 1023.4 1023.2 0.0
05/10:30am 16.8 14.9 9.0 60 4.1 E 9 15 5 8 1023.7 1023.5 0.0
05/10:00am 16.0 13.8 9.4 65 3.5 SE 11 17 6 9 1023.8 1023.6 0.0
05/09:30am 15.2 13.5 9.8 70 2.9 ESE 9 13 5 7 1023.9 1023.7 0.0
05/09:00am 14.3 14.0 10.1 76 2.2 ESE 2 11 1 6 1023.7 1023.5 0.0
05/08:30am 11.9 11.8 9.5 85 1.2 CALM 0 0 0 0 1023.7 1023.5 0.0
05/08:00am 10.8 9.5 9.2 90 0.8 W 6 7 3 4 1023.4 1023.2 0.0
05/07:30am 9.1 7.4 7.7 91 0.7 WNW 6 7 3 4 1023.2 1023.0 0.0
05/07:00am 8.7 7.4 7.6 93 0.5 NNE 4 6 2 3 1022.9 1022.7 0.0
05/06:30am 8.1 5.7 6.9 92 0.6 NE 9 11 5 6 1022.7 1022.5 0.0
05/06:00am 9.2 8.6 7.6 90 0.8 CALM 0 0 0 0 1022.4 1022.1 0.0
05/05:30am 9.6 9.1 8.0 90 0.8 CALM 0 0 0 0 1022.2 1021.9 0.0
05/05:00am 10.1 9.4 8.5 90 0.8 SW 2 9 1 5 1022.0 1021.7 0.0
05/04:30am 9.9 9.4 8.0 88 0.9 CALM 0 0 0 0 1022.0 1021.7 0.0
05/04:00am 10.4 10.0 8.2 86 1.1 CALM 0 0 0 0 1022.0 1021.7 0.0
05/03:30am 10.8 10.5 8.7 87 1.1 CALM 0 0 0 0 1022.2 1021.9 0.0
05/03:00am 10.9 10.6 8.8 87 1.1 CALM 0 0 0 0 1022.4 1022.1 0.0
05/02:30am 11.0 10.6 8.2 83 1.4 CALM 0 0 0 0 1022.2 1021.9 0.0
05/02:00am 11.6 11.3 8.8 83 1.4 CALM 0 0 0 0 1022.3 1022.0 0.0
05/01:30am 11.8 11.5 8.6 81 1.6 CALM 0 0 0 0 1022.5 1022.3 0.0
05/01:00am 12.5 12.3 9.1 80 1.7 CALM 0 0 0 0 1022.5 1022.3 0.0
05/12:30am 12.6 12.4 8.9 78 1.9 CALM 0 0 0 0 1022.6 1022.4 0.0
05/12:00am 13.0 11.6 8.7 75 2.2 W 6 7 3 4 1022.7 1022.5 0.0
 
Date/Time
WST
Temp
°C
App
Temp
°C
Dew
Point
Rel
Hum
%
Delta-T
°C
Wind Press
QNH
hPa
Press
MSL
hPa
Rain
since 9 am
mm
Dir
 
Spd
km/h
Gust
km/h
Spd
kts
Gust
kts
04/11:30pm 13.8 12.8 8.8 72 2.6 SSW 4 6 2 3 1022.7 1022.5 0.0
04/11:00pm 14.4 12.4 8.8 69 2.9 SSW 9 11 5 6 1022.8 1022.6 0.0
04/10:30pm 14.7 12.2 8.2 65 3.3 SW 11 13 6 7 1022.8 1022.6 0.0
04/10:00pm 16.1 14.0 8.3 60 4.0 SSW 9 11 5 6 1022.8 1022.6 0.0
04/09:30pm 14.5 12.6 7.5 63 3.5 NNE 7 9 4 5 1022.7 1022.5 0.0
04/09:00pm 15.3 14.8 7.8 61 3.8 CALM 0 4 0 2 1022.7 1022.5 0.0
04/08:30pm 16.1 15.2 7.6 57 4.3 S 2 7 1 4 1022.5 1022.3 0.0
04/08:00pm 16.5 15.6 7.7 56 4.5 SSW 2 7 1 4 1022.3 1022.0 0.0
04/07:30pm 17.8 16.2 7.8 52 5.2 SW 6 7 3 4 1022.3 1022.0 0.0
04/07:00pm 18.6 16.4 7.7 49 5.6 SW 9 11 5 6 1022.2 1021.9 0.0
04/06:30pm 19.1 16.8 7.5 47 6.0 SSW 9 11 5 6 1022.0 1021.7 0.0
04/06:00pm 20.2 18.3 7.6 44 6.6 SSW 7 9 4 5 1021.7 1021.4 0.0
04/05:30pm 21.4 19.1 7.6 41 7.3 SSW 9 13 5 7 1021.4 1021.2 0.0
04/05:00pm 22.1 18.9 6.7 37 8.0 SW 13 15 7 8 1021.4 1021.2 0.0
04/04:30pm 22.7 19.9 6.9 36 8.3 WSW 11 19 6 10 1021.3 1021.1 0.0
04/04:00pm 23.0 20.6 7.1 36 8.4 W 9 15 5 8 1021.4 1021.2 0.0
04/03:30pm 22.9 19.6 6.6 35 8.5 WNW 13 20 7 11 1021.5 1021.3 0.0
04/03:00pm 22.9 19.5 7.8 38 8.0 WNW 15 22 8 12 1021.4 1021.2 0.0
04/02:30pm 22.9 20.9 7.0 36 8.4 S 7 15 4 8 1021.4 1021.2 0.0
04/02:00pm 22.6 20.7 7.6 38 7.9 NNE 7 11 4 6 1021.7 1021.4 0.0
04/01:30pm 22.4 20.3 8.1 40 7.7 SW 9 13 5 7 1021.9 1021.6 0.0
04/01:00pm 21.2 19.2 8.8 45 6.7 SE 9 13 5 7 1022.2 1021.9 0.0
04/12:30pm 21.4 20.1 9.3 46 6.6 SE 6 13 3 7 1022.7 1022.5 0.0
04/12:00pm 21.3 20.2 9.9 48 6.2 N 6 11 3 6 1023.2 1023.0 0.0
04/11:30am 20.7 19.0 9.9 50 5.9 NE 9 15 5 8 1023.7 1023.5 0.0
04/11:00am 19.8 17.8 10.2 54 5.2 NE 11 17 6 9 1024.1 1023.9 0.0
04/10:30am 19.1 17.5 10.1 56 4.9 ENE 9 13 5 7 1024.5 1024.2 0.0
04/10:00am 18.0 16.4 10.1 60 4.3 ENE 9 13 5 7 1024.5 1024.2 0.0
04/09:30am 17.0 14.9 9.9 63 3.8 ENE 11 15 6 8 1024.5 1024.2 0.0
04/09:00am 15.1 12.8 9.0 67 3.2 ENE 11 13 6 7 1024.5 1024.2 0.0
04/08:30am 13.9 12.5 8.7 71 2.7 ENE 6 9 3 5 1024.1 1023.9 0.0
04/08:00am 11.9 10.2 8.2 78 1.9 N 7 9 4 5 1024.0 1023.8 0.0
04/07:30am 10.1 8.3 7.3 83 1.4 N 6 7 3 4 1023.8 1023.6 0.0
04/07:00am 9.2 6.7 6.6 84 1.2 N 9 9 5 5 1023.6 1023.4 0.0
04/06:30am 9.1 6.7 6.9 86 1.1 N 9 11 5 6 1023.3 1023.1 0.0
04/06:00am 9.6 8.9 6.9 83 1.3 CALM 0 0 0 0 1023.3 1023.1 0.0
04/05:30am 9.6 8.9 6.9 83 1.3 CALM 0 0 0 0 1023.1 1022.9 0.0
04/05:00am 9.7 7.8 6.6 81 1.5 N 6 7 3 4 1023.1 1022.9 0.0
04/04:30am 9.8 7.9 6.7 81 1.5 N 6 7 3 4 1023.2 1023.0 0.0
04/04:00am 9.8 9.0 6.5 80 1.6 CALM 0 0 0 0 1023.2 1023.0 0.0
04/03:30am 10.8 10.1 7.1 78 1.8 CALM 0 0 0 0 1023.2 1023.0 0.0
04/03:00am 11.0 10.3 6.9 76 2.0 CALM 0 0 0 0 1023.2 1023.0 0.0
04/02:30am 11.2 10.5 6.9 75 2.1 CALM 0 0 0 0 1023.3 1023.1 0.0
04/02:00am 11.2 10.4 6.7 74 2.2 CALM 0 0 0 0 1023.5 1023.3 0.0
04/01:30am 11.7 10.1 6.4 70 2.6 SSW 4 7 2 4 1023.6 1023.4 0.0
04/01:00am 12.3 11.5 6.4 67 2.8 CALM 0 4 0 2 1023.6 1023.4 0.0
04/12:30am 12.3 10.2 5.9 65 3.1 WSW 6 6 3 3 1023.7 1023.5 0.0
04/12:00am 12.8 10.5 5.9 63 3.3 NW 7 7 4 4 1023.6 1023.4 0.0
 
Date/Time
WST
Temp
°C
App
Temp
°C
Dew
Point
Rel
Hum
%
Delta-T
°C
Wind Press
QNH
hPa
Press
MSL
hPa
Rain
since 9 am
mm
Dir
 
Spd
km/h
Gust
km/h
Spd
kts
Gust
kts
03/11:30pm 12.9 12.1 6.3 64 3.2 CALM 0 0 0 0 1023.7 1023.5 0.0
03/11:00pm 12.9 10.8 5.8 62 3.4 NE 6 6 3 3 1023.8 1023.6 0.0
03/10:30pm 13.2 11.1 5.9 61 3.5 NE 6 7 3 4 1023.8 1023.6 0.0
03/10:00pm 13.2 11.8 5.4 59 3.7 E 2 9 1 5 1023.7 1023.5 0.0
03/09:30pm 14.0 13.0 5.6 57 4.1 CALM 0 0 0 0 1023.9 1023.7 0.0
03/09:00pm 15.6 13.5 5.8 52 4.8 S 6 7 3 4 1023.7 1023.5 0.0
03/08:30pm 16.4 14.2 5.1 47 5.5 SSE 6 7 3 4 1023.6 1023.4 0.0
03/08:00pm 16.2 13.6 4.3 45 5.7 S 7 7 4 4 1023.5 1023.3 0.0
03/07:30pm 17.8 15.3 4.0 40 6.6 SSW 6 7 3 4 1023.4 1023.2 0.0
03/07:00pm 18.6 15.1 3.6 37 7.2 SSW 11 13 6 7 1023.3 1023.1 0.0
03/06:30pm 19.3 16.2 3.5 35 7.6 SSW 9 13 5 7 1023.0 1022.8 0.0
03/06:00pm 20.5 17.0 3.7 33 8.2 SSW 11 13 6 7 1022.8 1022.6 0.0
03/05:30pm 21.8 17.9 3.5 30 9.0 SW 13 19 7 10 1022.5 1022.3 0.0
03/05:00pm 22.9 18.1 2.4 26 9.9 SW 17 20 9 11 1022.3 1022.0 0.0
03/04:30pm 23.4 18.8 1.7 24 10.4 SW 15 20 8 11 1022.1 1021.8 0.0
03/04:00pm 24.1 19.6 2.3 24 10.6 WSW 15 20 8 11 1022.0 1021.7 0.0
03/03:30pm 24.1 19.6 2.3 24 10.6 SW 15 20 8 11 1021.8 1021.5 0.0
03/03:00pm 24.1 20.0 2.3 24 10.6 SW 13 19 7 10 1021.9 1021.6 0.0
03/02:30pm 23.7 20.7 2.0 24 10.5 WSW 7 17 4 9 1022.0 1021.7 0.0
03/02:00pm 23.8 20.0 2.0 24 10.5 WSW 11 15 6 8 1022.2 1021.9 0.0
03/01:30pm 23.6 21.2 1.9 24 10.5 SW 4 13 2 7 1022.4 1022.1 0.0
03/01:00pm 23.1 19.7 2.0 25 10.1 WSW 9 13 5 7 1022.7 1022.5 0.0
03/12:30pm 23.0 20.6 4.5 30 9.3 S 6 9 3 5 1022.9 1022.7 0.0
03/12:00pm 22.8 20.5 4.8 31 9.1 NE 6 9 3 5 1023.5 1023.3 0.0
03/11:30am 21.9 19.4 4.5 32 8.7 NE 7 11 4 6 1023.8 1023.6 0.0
03/11:00am 20.5 18.0 4.5 35 7.9 SE 7 9 4 5 1024.3 1024.0 0.0
03/10:30am 19.3 17.8 5.0 39 7.1 SE 2 6 1 3 1024.6 1024.4 0.0
03/10:00am 17.7 16.5 4.6 42 6.3 CALM 0 0 0 0 1024.8 1024.6 0.0
03/09:30am 16.9 15.3 4.6 44 5.9 ENE 2 7 1 4 1024.8 1024.6 0.0
03/09:00am 16.4 15.4 5.4 48 5.4 CALM 0 0 0 0 1024.6 1024.4 0.0
03/08:30am 14.2 12.4 5.6 56 4.2 N 4 6 2 3 1024.5 1024.2 0.0
03/08:00am 11.6 9.5 5.7 67 2.8 N 6 7 3 4 1024.1 1023.9 0.0
03/07:30am 9.6 8.5 5.0 73 2.1 CALM 0 0 0 0 1023.9 1023.7 0.0
03/07:00am 8.9 7.8 4.9 76 1.8 CALM 0 0 0 0 1023.7 1023.5 0.0
03/06:30am 9.0 7.8 4.8 75 1.9 CALM 0 0 0 0 1023.7 1023.5 0.0
03/06:00am 9.4 8.3 5.2 75 1.9 CALM 0 0 0 0 1023.6 1023.4 0.0
03/05:30am 9.9 8.8 4.9 71 2.3 CALM 0 0 0 0 1023.4 1023.2 0.0
03/05:00am 10.9 9.4 5.0 67 2.7 SW 2 6 1 3 1023.2 1023.0 0.0
03/04:30am 11.6 7.6 4.8 63 3.2 SW 15 17 8 9 1023.3 1023.1 0.0
03/04:00am 11.5 9.2 4.7 63 3.1 NNW 6 9 3 5 1023.1 1022.9 0.0
03/03:30am 12.3 9.8 5.0 61 3.4 N 7 9 4 5 1023.1 1022.9 0.0
03/03:00am 12.6 9.7 4.8 59 3.6 NNE 9 11 5 6 1023.3 1023.1 0.0
03/02:30am 13.0 10.2 5.2 59 3.7 N 9 11 5 6 1023.5 1023.3 0.0
03/02:00am 13.2 11.2 6.3 63 3.3 NE 6 7 3 4 1023.6 1023.4 0.0
03/01:30am 14.2 13.2 5.8 57 4.1 CALM 0 0 0 0 1023.9 1023.7 0.0
03/01:00am 15.1 14.0 5.3 52 4.7 CALM 0 0 0 0 1023.9 1023.7 0.0
03/12:30am 15.2 14.3 6.0 54 4.5 CALM 0 0 0 0 1024.1 1023.9 0.0
03/12:00am 15.5 14.6 6.2 54 4.6 CALM 0 0 0 0 1024.4 1024.1 0.0
 
Date/Time
WST
Temp
°C
App
Temp
°C
Dew
Point
Rel
Hum
%
Delta-T
°C
Wind Press
QNH
hPa
Press
MSL
hPa
Rain
since 9 am
mm
Dir
 
Spd
km/h
Gust
km/h
Spd
kts
Gust
kts
02/11:30pm 15.9 14.9 5.5 50 5.1 CALM 0 0 0 0 1024.6 1024.4 0.0
02/11:00pm 16.1 14.3 5.4 49 5.2 SSE 4 9 2 5 1024.7 1024.5 0.0
02/10:30pm 16.3 14.9 5.6 49 5.3 WSW 2 6 1 3 1024.9 1024.7 0.0
02/10:00pm 16.5 13.7 5.2 47 5.5 SW 9 11 5 6 1025.1 1024.9 0.0
02/09:30pm 16.9 15.9 5.5 47 5.6 CALM 0 0 0 0 1024.8 1024.6 0.0
02/09:00pm 17.3 14.8 4.9 44 6.0 SW 7 7 4 4 1024.8 1024.6 0.0
02/08:30pm 17.6 14.7 4.5 42 6.4 SW 9 13 5 7 1024.8 1024.6 0.0
02/08:00pm 18.3 15.8 4.5 40 6.7 SSE 7 11 4 6 1024.1 1023.9 0.0
02/07:30pm 18.8 15.0 3.8 37 7.2 S 13 17 7 9 1024.0 1023.8 0.0
02/07:00pm 19.3 14.4 3.9 36 7.4 SSW 19 24 10 13 1023.7 1023.5 0.0
02/06:30pm 19.7 14.6 4.2 36 7.6 SW 20 33 11 18 1023.3 1023.1 0.0
02/06:00pm 21.3 19.6 4.0 32 8.5 NNE 2 6 1 3 1022.7 1022.5 0.0
02/05:30pm 22.0 18.7 2.7 28 9.3 N 9 11 5 6 1022.3 1022.0 0.0
02/05:00pm 22.9 19.6 2.4 26 9.9 NNE 9 13 5 7 1022.0 1021.7 0.0
02/04:30pm 23.6 19.1 1.9 24 10.5 NNE 15 20 8 11 1022.1 1021.8 0.0
02/04:00pm 24.0 18.8 2.2 24 10.6 NNE 19 22 10 12 1021.9 1021.6 0.0
02/03:30pm 24.5 20.0 2.0 23 10.9 N 15 22 8 12 1021.8 1021.5 0.0
02/03:00pm 24.3 19.8 1.9 23 10.8 N 15 20 8 11 1022.1 1021.8 0.0
02/02:30pm 24.4 19.9 1.9 23 10.9 N 15 24 8 13 1022.5 1022.3 0.0

Other Formats:

Comma delimited format used in spreadsheet applications
http://www.bom.gov.au/fwo/IDW60801/IDW60801.94429.axf

JavaScript Object Notation format (JSON) in row-major order
http://www.bom.gov.au/fwo/IDW60801/IDW60801.94429.json